createdAt,value
2019-01-21T00:02:24.464Z,-8.24
2019-01-21T00:04:53.160Z,-8.26
2019-01-21T00:07:21.887Z,-8.27
2019-01-21T00:09:50.679Z,-8.31
2019-01-21T00:12:19.381Z,-8.30
2019-01-21T00:14:48.070Z,-8.37
2019-01-21T00:17:22.261Z,-8.38
2019-01-21T00:19:47.603Z,-8.37
2019-01-21T00:22:16.395Z,-8.31
2019-01-21T00:24:45.096Z,-8.30
2019-01-21T00:27:13.860Z,-8.30
2019-01-21T00:29:42.627Z,-8.37
2019-01-21T00:32:11.406Z,-8.39
2019-01-21T00:34:40.168Z,-8.34
2019-01-21T00:37:08.868Z,-8.29
2019-01-21T00:39:37.635Z,-8.29
2019-01-21T00:42:06.390Z,-8.28
2019-01-21T00:44:35.184Z,-8.30
2019-01-21T00:47:03.953Z,-8.32
2019-01-21T00:49:32.789Z,-8.22
2019-01-21T00:52:01.475Z,-8.24
2019-01-21T00:54:30.160Z,-8.18
2019-01-21T00:56:58.864Z,-8.16
2019-01-21T00:59:27.870Z,-7.92
2019-01-21T01:01:56.710Z,-7.96
2019-01-21T01:04:25.483Z,-7.88
2019-01-21T01:06:54.251Z,-7.88
2019-01-21T01:09:23.322Z,-7.88
2019-01-21T01:11:52.090Z,-7.94
2019-01-21T01:14:20.790Z,-8.08
2019-01-21T01:16:49.665Z,-8.15
2019-01-21T01:19:18.429Z,-8.26
2019-01-21T01:21:47.188Z,-8.24
2019-01-21T01:24:15.878Z,-8.35
2019-01-21T01:26:44.714Z,-8.36
2019-01-21T01:29:13.395Z,-8.39
2019-01-21T01:31:42.158Z,-8.48
2019-01-21T01:34:10.928Z,-8.55
2019-01-21T01:36:39.656Z,-8.59
2019-01-21T01:39:08.467Z,-8.57
2019-01-21T01:41:38.303Z,-8.68
2019-01-21T01:44:07.142Z,-8.77
2019-01-21T01:46:35.915Z,-8.83
2019-01-21T01:49:04.790Z,-8.76
2019-01-21T01:51:33.559Z,-8.78
2019-01-21T01:54:02.472Z,-8.78
2019-01-21T01:56:31.228Z,-8.73
2019-01-21T01:59:00.307Z,-8.73
2019-01-21T02:01:29.247Z,-8.74
2019-01-21T02:03:57.949Z,-8.64
2019-01-21T02:06:26.699Z,-8.56
2019-01-21T02:08:55.459Z,-8.53
2019-01-21T02:11:24.216Z,-8.53
2019-01-21T02:13:53.381Z,-8.53
2019-01-21T02:16:22.197Z,-8.64
2019-01-21T02:18:51.038Z,-8.70
2019-01-21T02:21:21.276Z,-8.74
2019-01-21T02:23:53.719Z,-8.79
2019-01-21T02:26:24.139Z,-8.86
2019-01-21T02:29:02.635Z,-8.89
2019-01-21T02:32:08.702Z,-8.80
2019-01-21T02:34:43.148Z,-8.73
2019-01-21T02:37:56.262Z,-8.57
2019-01-21T02:40:41.047Z,-8.28
2019-01-21T02:43:39.119Z,-8.24
2019-01-21T02:47:10.427Z,-8.39
2019-01-21T02:50:19.232Z,-8.68
2019-01-21T02:53:32.549Z,-8.89
2019-01-21T02:56:25.339Z,-9.08
2019-01-21T02:59:41.678Z,-9.07
2019-01-21T03:03:09.981Z,-9.03
2019-01-21T03:06:22.919Z,-8.98
2019-01-21T03:09:44.645Z,-8.80
2019-01-21T03:12:54.146Z,-8.61
2019-01-21T03:16:04.831Z,-8.38
2019-01-21T03:19:24.634Z,-8.58
2019-01-21T03:22:49.082Z,-8.67
2019-01-21T03:25:58.207Z,-8.67
2019-01-21T03:28:54.785Z,-8.77
2019-01-21T03:31:49.570Z,-8.87
2019-01-21T03:34:42.114Z,-8.89
2019-01-21T03:37:43.626Z,-8.65
2019-01-21T03:40:46.134Z,-8.61
2019-01-21T03:43:46.090Z,-8.77
2019-01-21T03:46:51.734Z,-8.82
2019-01-21T03:49:31.264Z,-8.86
2019-01-21T03:52:30.759Z,-9.04
2019-01-21T03:55:04.485Z,-9.13
2019-01-21T03:58:18.300Z,-9.12
2019-01-21T04:01:12.506Z,-9.16
2019-01-21T04:04:22.625Z,-9.10
2019-01-21T04:07:10.780Z,-8.96
2019-01-21T04:10:03.123Z,-8.99
2019-01-21T04:13:01.444Z,-8.87
2019-01-21T04:16:10.852Z,-8.92
2019-01-21T04:18:56.434Z,-8.86
2019-01-21T04:22:21.851Z,-9.04
2019-01-21T04:25:43.888Z,-9.18
2019-01-21T04:28:38.680Z,-9.21
2019-01-21T04:31:33.475Z,-9.15
2019-01-21T04:34:29.302Z,-8.96
2019-01-21T04:37:10.171Z,-8.80
2019-01-21T04:40:03.632Z,-8.81
2019-01-21T04:43:02.120Z,-8.88
2019-01-21T04:45:43.011Z,-8.95
2019-01-21T04:48:37.389Z,-9.03
2019-01-21T04:51:48.043Z,-9.01
2019-01-21T04:54:45.192Z,-8.86
2019-01-21T04:57:36.938Z,-8.81
2019-01-21T05:00:44.027Z,-8.83
2019-01-21T05:04:05.899Z,-8.67
2019-01-21T05:07:09.440Z,-8.72
2019-01-21T05:10:15.175Z,-8.91
2019-01-21T05:13:17.059Z,-8.90
2019-01-21T05:16:04.597Z,-8.81
2019-01-21T05:19:07.635Z,-8.88
2019-01-21T05:22:11.942Z,-8.86
2019-01-21T05:25:30.879Z,-8.98
2019-01-21T05:28:26.797Z,-9.07
2019-01-21T05:31:33.969Z,-9.03
2019-01-21T05:34:48.789Z,-9.21
2019-01-21T05:37:51.424Z,-9.32
2019-01-21T05:40:56.685Z,-9.37
2019-01-21T05:44:22.085Z,-9.46
2019-01-21T05:47:35.952Z,-9.41
2019-01-21T05:50:44.564Z,-9.52
2019-01-21T05:53:58.405Z,-9.60
2019-01-21T05:57:03.381Z,-9.66
2019-01-21T06:00:08.889Z,-9.63
2019-01-21T06:03:11.217Z,-9.69
2019-01-21T06:06:17.322Z,-9.50
2019-01-21T06:09:10.888Z,-9.53
2019-01-21T06:12:05.088Z,-9.50
2019-01-21T06:15:10.881Z,-9.54
2019-01-21T06:18:15.637Z,-9.49
2019-01-21T06:21:10.167Z,-9.43
2019-01-21T06:24:15.902Z,-9.51
2019-01-21T06:27:29.411Z,-9.48
2019-01-21T06:30:30.376Z,-9.74
2019-01-21T06:33:45.332Z,-9.70
2019-01-21T06:36:43.911Z,-9.73
2019-01-21T06:39:38.595Z,-9.70
2019-01-21T06:42:58.721Z,-9.75
2019-01-21T06:46:02.242Z,-9.74
2019-01-21T06:49:04.775Z,-9.72
2019-01-21T06:52:13.183Z,-9.81
2019-01-21T06:55:09.795Z,-10.00
2019-01-21T06:58:10.896Z,-10.07
2019-01-21T07:01:38.858Z,-10.05
2019-01-21T07:04:30.929Z,-10.05
2019-01-21T07:07:26.434Z,-10.06
2019-01-21T07:10:21.418Z,-10.04
2019-01-21T07:13:33.246Z,-10.04
2019-01-21T07:16:30.164Z,-9.81
2019-01-21T07:19:37.657Z,-9.74
2019-01-21T07:22:27.412Z,-9.78
2019-01-21T07:25:32.682Z,-9.81
2019-01-21T07:29:10.396Z,-9.74
2019-01-21T07:31:58.186Z,-9.79
2019-01-21T07:35:00.222Z,-9.84
2019-01-21T07:37:56.640Z,-9.96
2019-01-21T07:41:05.916Z,-9.85
2019-01-21T07:43:57.127Z,-9.84
2019-01-21T07:47:02.225Z,-9.74
2019-01-21T07:50:24.365Z,-9.70
2019-01-21T07:53:33.195Z,-9.65
2019-01-21T07:56:38.611Z,-9.55
2019-01-21T07:59:47.859Z,-9.62
2019-01-21T08:02:57.980Z,-9.70
2019-01-21T08:06:06.544Z,-9.56
2019-01-21T08:08:42.387Z,-8.93
2019-01-21T08:11:42.707Z,-8.55
2019-01-21T08:14:43.227Z,-8.38
2019-01-21T08:17:22.825Z,-8.16
2019-01-21T08:20:07.451Z,-8.00
2019-01-21T08:23:20.515Z,-7.90
2019-01-21T08:26:08.702Z,-7.76
2019-01-21T08:29:12.313Z,-7.66
2019-01-21T08:32:34.824Z,-7.24
2019-01-21T08:35:23.920Z,-6.87
2019-01-21T08:38:13.103Z,-6.36
2019-01-21T08:40:58.175Z,-5.98
2019-01-21T08:44:13.041Z,-5.66
2019-01-21T08:47:07.235Z,-5.77
2019-01-21T08:50:14.418Z,-6.06
2019-01-21T08:53:19.761Z,-6.46
2019-01-21T08:56:45.425Z,-6.46
2019-01-21T08:59:40.274Z,-6.20
2019-01-21T09:02:46.516Z,-5.90
2019-01-21T09:05:56.403Z,-5.49
2019-01-21T09:09:11.438Z,-5.32
2019-01-21T09:12:24.795Z,-5.09
2019-01-21T09:15:39.537Z,-5.00
2019-01-21T09:18:33.854Z,-5.05
2019-01-21T09:21:49.926Z,-5.17
2019-01-21T09:25:15.470Z,-5.01
2019-01-21T09:28:29.935Z,-4.59
2019-01-21T09:31:22.148Z,-4.59
2019-01-21T09:34:22.175Z,-4.57
2019-01-21T09:37:44.454Z,-4.02
2019-01-21T09:41:01.456Z,-3.82
2019-01-21T09:44:16.606Z,-3.68
2019-01-21T09:46:44.744Z,-3.70
2019-01-21T09:49:12.126Z,-3.77
2019-01-21T09:51:43.134Z,-3.42
2019-01-21T09:54:12.093Z,-3.34
2019-01-21T09:56:41.140Z,-3.39
2019-01-21T09:59:09.927Z,-3.48
2019-01-21T10:01:38.805Z,-3.46
2019-01-21T10:04:07.663Z,-3.30
2019-01-21T10:06:46.549Z,-3.06
2019-01-21T10:09:39.595Z,-2.30
2019-01-21T10:12:38.307Z,-2.04
2019-01-21T10:15:27.806Z,-2.04
2019-01-21T10:18:56.069Z,-2.34
2019-01-21T10:22:02.539Z,-2.53
2019-01-21T10:24:45.642Z,-2.49
2019-01-21T10:28:17.142Z,-2.52
2019-01-21T10:31:22.733Z,-2.81
2019-01-21T10:34:18.293Z,-2.84
2019-01-21T10:37:23.027Z,-2.65
2019-01-21T10:40:22.000Z,-2.22
2019-01-21T10:43:30.518Z,-2.26
2019-01-21T10:46:43.611Z,-1.71
2019-01-21T10:49:57.534Z,-1.43
2019-01-21T10:52:56.551Z,-1.13
2019-01-21T10:55:58.027Z,-1.00
2019-01-21T10:59:10.678Z,-1.06
2019-01-21T11:02:09.619Z,-0.67
2019-01-21T11:05:28.822Z,-0.08
2019-01-21T11:09:04.977Z,-0.37
2019-01-21T11:12:09.898Z,-0.27
2019-01-21T11:15:10.842Z,-0.59
2019-01-21T11:17:59.900Z,-0.43
2019-01-21T11:21:03.839Z,-0.58
2019-01-21T11:23:53.308Z,-0.43
2019-01-21T11:27:03.275Z,-0.23
2019-01-21T11:29:58.298Z,-0.51
2019-01-21T11:33:04.369Z,-0.62
2019-01-21T11:35:45.687Z,-0.60
2019-01-21T11:38:51.568Z,-0.81
2019-01-21T11:42:05.095Z,-0.93
2019-01-21T11:45:05.320Z,-0.59
2019-01-21T11:47:54.769Z,-0.16
2019-01-21T11:51:16.914Z,-0.12
2019-01-21T11:54:19.999Z,-0.13
2019-01-21T11:57:00.789Z,-0.15
2019-01-21T12:00:11.082Z,-0.28
2019-01-21T12:03:07.272Z,-0.42
2019-01-21T12:05:49.818Z,-0.34
2019-01-21T12:08:48.689Z,-0.29
2019-01-21T12:11:42.915Z,0.46
2019-01-21T12:14:43.483Z,0.97
2019-01-21T12:18:11.489Z,0.72
2019-01-21T12:21:19.576Z,0.42
2019-01-21T12:24:12.624Z,0.55
2019-01-21T12:27:37.594Z,0.88
2019-01-21T12:30:43.026Z,0.53
2019-01-21T12:33:51.691Z,0.24
2019-01-21T12:36:52.867Z,-0.15
2019-01-21T12:40:06.766Z,-0.13
2019-01-21T12:43:08.758Z,0.22
2019-01-21T12:46:24.696Z,0.21
2019-01-21T12:49:35.178Z,0.17
2019-01-21T12:52:18.452Z,0.82
2019-01-21T12:55:31.433Z,1.31
2019-01-21T12:58:48.055Z,1.73
2019-01-21T13:01:51.082Z,1.36
2019-01-21T13:04:44.132Z,1.31
2019-01-21T13:08:15.601Z,1.83
2019-01-21T13:10:58.923Z,2.19
2019-01-21T13:14:07.607Z,2.29
2019-01-21T13:17:20.589Z,2.37
2019-01-21T13:20:23.704Z,2.62
2019-01-21T13:23:22.684Z,2.38
2019-01-21T13:26:39.395Z,2.43
2019-01-21T13:29:22.794Z,2.25
2019-01-21T13:32:25.277Z,2.14
2019-01-21T13:35:31.171Z,2.02
2019-01-21T13:38:31.490Z,1.76
2019-01-21T13:41:33.684Z,1.66
2019-01-21T13:44:39.612Z,1.59
2019-01-21T13:47:44.649Z,1.43
2019-01-21T13:50:56.419Z,1.19
2019-01-21T13:54:21.850Z,0.86
2019-01-21T13:57:21.035Z,0.44
2019-01-21T14:00:27.412Z,0.22
2019-01-21T14:03:22.720Z,0.05
2019-01-21T14:06:28.449Z,0.02
2019-01-21T14:09:43.383Z,0.06
2019-01-21T14:12:55.710Z,0.15
2019-01-21T14:15:53.147Z,0.18
2019-01-21T14:18:40.128Z,0.16
2019-01-21T14:21:22.107Z,0.18
2019-01-21T14:24:16.276Z,0.10
2019-01-21T14:27:26.851Z,0.00
2019-01-21T14:30:40.246Z,0.02
2019-01-21T14:33:44.028Z,0.04
2019-01-21T14:36:49.956Z,0.35
2019-01-21T14:39:46.403Z,0.38
2019-01-21T14:42:36.792Z,0.28
2019-01-21T14:46:17.389Z,0.27
2019-01-21T14:49:16.459Z,0.23
2019-01-21T14:52:30.067Z,0.36
2019-01-21T14:55:39.261Z,0.33
2019-01-21T14:58:24.293Z,0.13
2019-01-21T15:01:22.337Z,-0.07
2019-01-21T15:04:18.817Z,-0.12
2019-01-21T15:07:03.463Z,-0.20
2019-01-21T15:09:58.410Z,-0.27
2019-01-21T15:13:20.566Z,-0.32
2019-01-21T15:16:09.748Z,-0.33
2019-01-21T15:19:19.253Z,-0.37
2019-01-21T15:22:15.459Z,-0.34
2019-01-21T15:25:27.343Z,-0.28
2019-01-21T15:28:52.788Z,-0.27
2019-01-21T15:32:08.879Z,-0.40
2019-01-21T15:35:12.717Z,-0.73
2019-01-21T15:37:54.612Z,-0.95
2019-01-21T15:40:53.945Z,-0.85
2019-01-21T15:43:46.581Z,-0.69
2019-01-21T15:47:02.663Z,-0.38
2019-01-21T15:49:45.435Z,-0.32
2019-01-21T15:53:02.093Z,-0.55
2019-01-21T15:56:18.954Z,-0.84
2019-01-21T15:59:20.628Z,-1.10
2019-01-21T16:02:14.875Z,-1.24
2019-01-21T16:05:46.485Z,-1.40
2019-01-21T16:08:26.923Z,-1.57
2019-01-21T16:11:22.670Z,-1.71
2019-01-21T16:14:02.696Z,-1.84
2019-01-21T16:16:40.500Z,-2.08
2019-01-21T16:19:15.930Z,-2.28
2019-01-21T16:22:21.707Z,-2.34
2019-01-21T16:25:40.588Z,-2.40
2019-01-21T16:28:59.652Z,-2.34
2019-01-21T16:32:17.250Z,-2.08
2019-01-21T16:35:46.491Z,-1.95
2019-01-21T16:38:35.495Z,-2.09
2019-01-21T16:42:03.910Z,-2.31
2019-01-21T16:44:33.040Z,-2.56
2019-01-21T16:47:01.814Z,-2.88
2019-01-21T16:49:30.631Z,-3.12
2019-01-21T16:51:59.439Z,-3.24
2019-01-21T16:54:28.313Z,-3.31
2019-01-21T16:56:57.125Z,-3.37
2019-01-21T16:59:25.818Z,-3.45
2019-01-21T17:01:56.122Z,-3.51
2019-01-21T17:04:25.243Z,-3.58
2019-01-21T17:06:54.032Z,-3.63
2019-01-21T17:09:23.299Z,-3.72
2019-01-21T17:11:52.294Z,-3.74
2019-01-21T17:14:20.986Z,-3.76
2019-01-21T17:16:49.783Z,-3.83
2019-01-21T17:19:18.556Z,-3.88
2019-01-21T17:21:47.282Z,-3.65
2019-01-21T17:24:16.351Z,-3.42
2019-01-21T17:26:45.211Z,-3.24
2019-01-21T17:29:13.914Z,-3.28
2019-01-21T17:31:42.619Z,-3.36
2019-01-21T17:34:12.161Z,-3.29
2019-01-21T17:36:40.951Z,-3.24
2019-01-21T17:39:09.869Z,-3.36
2019-01-21T17:41:38.567Z,-3.56
2019-01-21T17:44:07.354Z,-3.90
2019-01-21T17:46:36.075Z,-4.10
2019-01-21T17:49:05.254Z,-4.22
2019-01-21T17:51:35.394Z,-4.23
2019-01-21T17:54:04.901Z,-4.32
2019-01-21T17:56:33.997Z,-4.43
2019-01-21T17:59:02.789Z,-4.48
2019-01-21T18:01:31.547Z,-4.61
2019-01-21T18:04:00.228Z,-4.79
2019-01-21T18:06:29.072Z,-4.98
2019-01-21T18:08:57.832Z,-5.15
2019-01-21T18:11:26.548Z,-5.22
2019-01-21T18:13:55.315Z,-5.27
2019-01-21T18:16:24.081Z,-5.22
2019-01-21T18:18:52.861Z,-5.25
2019-01-21T18:21:21.635Z,-5.25
2019-01-21T18:23:50.367Z,-5.24
2019-01-21T18:26:19.124Z,-5.30
2019-01-21T18:28:47.964Z,-5.32
2019-01-21T18:31:16.725Z,-5.35
2019-01-21T18:33:45.885Z,-5.42
2019-01-21T18:36:15.571Z,-5.52
2019-01-21T18:38:44.352Z,-5.59
2019-01-21T18:41:13.207Z,-5.55
2019-01-21T18:43:41.977Z,-5.70
2019-01-21T18:46:10.761Z,-5.89
2019-01-21T18:48:39.554Z,-5.96
2019-01-21T18:51:08.324Z,-5.94
2019-01-21T18:53:37.011Z,-5.97
2019-01-21T18:56:05.830Z,-5.93
2019-01-21T18:58:34.609Z,-5.92
2019-01-21T19:01:03.380Z,-5.98
2019-01-21T19:03:32.103Z,-5.99
2019-01-21T19:06:00.867Z,-6.01
2019-01-21T19:08:30.021Z,-5.96
2019-01-21T19:10:58.807Z,-6.12
2019-01-21T19:13:27.566Z,-6.22
2019-01-21T19:15:56.317Z,-6.28
2019-01-21T19:18:25.105Z,-6.02
2019-01-21T19:20:53.802Z,-5.88
2019-01-21T19:23:22.599Z,-5.94
2019-01-21T19:25:51.297Z,-5.88
2019-01-21T19:28:20.000Z,-5.95
2019-01-21T19:30:48.775Z,-6.09
2019-01-21T19:33:17.453Z,-6.20
2019-01-21T19:35:46.173Z,-6.24
2019-01-21T19:38:14.851Z,-6.25
2019-01-21T19:40:43.993Z,-6.30
2019-01-21T19:43:12.971Z,-6.34
2019-01-21T19:45:41.666Z,-6.36
2019-01-21T19:48:10.487Z,-6.35
2019-01-21T19:50:39.178Z,-6.32
2019-01-21T19:53:07.953Z,-6.19
2019-01-21T19:55:39.303Z,-6.05
2019-01-21T19:58:08.761Z,-6.20
2019-01-21T20:00:37.622Z,-6.34
2019-01-21T20:03:06.379Z,-6.39
2019-01-21T20:05:35.139Z,-6.48
2019-01-21T20:08:04.432Z,-6.55
2019-01-21T20:10:33.190Z,-6.55
2019-01-21T20:13:02.027Z,-6.66
2019-01-21T20:15:30.912Z,-6.74
2019-01-21T20:17:59.594Z,-6.80
2019-01-21T20:20:33.715Z,-6.94
2019-01-21T20:23:02.550Z,-7.09
2019-01-21T20:25:31.344Z,-7.09
2019-01-21T20:28:00.190Z,-7.05
2019-01-21T20:30:28.956Z,-6.98
2019-01-21T20:32:58.071Z,-6.89
2019-01-21T20:35:26.836Z,-6.85
2019-01-21T20:37:56.571Z,-6.64
2019-01-21T20:40:26.577Z,-6.37
2019-01-21T20:42:55.345Z,-6.31
2019-01-21T20:45:24.216Z,-6.57
2019-01-21T20:47:52.980Z,-6.78
2019-01-21T20:50:23.990Z,-6.90
2019-01-21T20:52:52.749Z,-7.01
2019-01-21T20:55:21.808Z,-7.04
2019-01-21T20:57:50.584Z,-7.11
2019-01-21T21:00:21.653Z,-7.13
2019-01-21T21:02:50.517Z,-7.15
2019-01-21T21:05:19.355Z,-7.30
2019-01-21T21:07:48.135Z,-7.37
2019-01-21T21:10:16.988Z,-7.37
2019-01-21T21:12:45.750Z,-7.28
2019-01-21T21:15:20.063Z,-7.47
2019-01-21T21:17:48.756Z,-7.55
2019-01-21T21:20:17.630Z,-7.67
2019-01-21T21:22:46.395Z,-7.75
2019-01-21T21:25:16.691Z,-7.75
2019-01-21T21:27:45.479Z,-7.72
2019-01-21T21:30:17.750Z,-7.49
2019-01-21T21:32:46.441Z,-7.33
2019-01-21T21:35:15.252Z,-7.34
2019-01-21T21:37:44.025Z,-7.47
2019-01-21T21:40:15.020Z,-7.59
2019-01-21T21:42:43.879Z,-7.56
2019-01-21T21:45:13.650Z,-7.40
2019-01-21T21:47:42.687Z,-7.46
2019-01-21T21:50:14.602Z,-7.58
2019-01-21T21:52:43.483Z,-7.63
2019-01-21T21:55:12.892Z,-7.81
2019-01-21T21:57:41.752Z,-7.73
2019-01-21T22:00:14.053Z,-7.83
2019-01-21T22:02:42.851Z,-7.83
2019-01-21T22:05:12.063Z,-7.93
2019-01-21T22:07:40.833Z,-8.02
2019-01-21T22:10:12.211Z,-8.08
2019-01-21T22:12:40.991Z,-7.91
2019-01-21T22:15:12.723Z,-7.94
2019-01-21T22:17:41.575Z,-8.01
2019-01-21T22:20:13.180Z,-7.95
2019-01-21T22:22:42.271Z,-8.03
2019-01-21T22:25:11.130Z,-8.20
2019-01-21T22:27:40.159Z,-8.22
2019-01-21T22:30:17.480Z,-8.24
2019-01-21T22:32:46.257Z,-8.18
2019-01-21T22:35:15.245Z,-8.14
2019-01-21T22:37:44.490Z,-8.16
2019-01-21T22:40:15.556Z,-8.20
2019-01-21T22:42:44.513Z,-7.83
2019-01-21T22:45:14.441Z,-7.75
2019-01-21T22:47:43.286Z,-7.82
2019-01-21T22:50:13.771Z,-7.95
2019-01-21T22:52:42.824Z,-8.08
2019-01-21T22:55:13.120Z,-8.11
2019-01-21T22:57:41.954Z,-8.15
2019-01-21T23:00:21.041Z,-8.21
2019-01-21T23:02:49.876Z,-8.25
2019-01-21T23:05:18.657Z,-8.29
2019-01-21T23:07:47.351Z,-8.33
2019-01-21T23:10:16.043Z,-8.40
2019-01-21T23:12:44.807Z,-8.40
2019-01-21T23:15:14.444Z,-8.40
2019-01-21T23:17:43.207Z,-8.47
2019-01-21T23:20:12.074Z,-8.54
2019-01-21T23:22:40.810Z,-8.64
2019-01-21T23:25:09.932Z,-8.69
2019-01-21T23:27:38.900Z,-8.73
2019-01-21T23:30:10.086Z,-8.73
2019-01-21T23:32:38.836Z,-8.78
2019-01-21T23:35:07.616Z,-8.79
2019-01-21T23:37:36.482Z,-8.84
2019-01-21T23:40:05.968Z,-8.87
2019-01-21T23:42:34.731Z,-8.88
2019-01-21T23:45:03.587Z,-8.90
2019-01-21T23:47:32.392Z,-8.90
2019-01-21T23:50:01.153Z,-8.91
2019-01-21T23:52:29.883Z,-8.87
2019-01-21T23:54:59.167Z,-8.93
2019-01-21T23:57:27.855Z,-8.97
2019-01-21T23:59:56.631Z,-8.93
